Time;durP1;ratioP1;P1;durP2;ratioP2;P2;SDS_P1;SDS_P2;PMS_P1;PMS_P2;Temp;Humidity;BMP_temperature;BMP_pressure;BME280_temperature;BME280_humidity;BME280_pressure;Samples;Min_cycle;Max_cycle;Signal;HPM_P1;HPM_P2
2021/11/18 00:00:28;;;;;;;46.22;16.13;;;;;;;4.98;100.00;102423.16;5042002;28;20033;-74
2021/11/18 00:02:55;;;;;;;41.03;15.30;;;;;;;4.95;100.00;102431.00;5057089;28;20040;-75
2021/11/18 00:05:23;;;;;;;33.30;14.23;;;;;;;4.85;99.91;102426.34;5044538;28;20073;-74
2021/11/18 00:07:51;;;;;;;42.95;15.55;;;;;;;4.88;99.56;102446.75;5064568;28;20078;-74
2021/11/18 00:10:32;;;;;;;55.85;16.73;;;;;;;4.94;100.00;102442.22;5059194;28;20551;-74
2021/11/18 00:12:59;;;;;;;44.80;15.05;;;;;;;4.93;99.45;102433.66;5031470;28;20036;-75
2021/11/18 00:15:26;;;;;;;47.05;15.93;;;;;;;4.90;99.48;102448.41;5041400;28;20032;-75
2021/11/18 00:17:59;;;;;;;40.50;16.13;;;;;;;4.99;100.00;102446.22;5041898;28;20037;-75
2021/11/18 00:20:27;;;;;;;51.95;17.88;;;;;;;4.94;99.65;102449.94;5057750;28;20033;-75
2021/11/18 00:22:53;;;;;;;52.08;16.90;;;;;;;4.96;99.59;102451.50;5039854;28;20036;-74
2021/11/18 00:25:19;;;;;;;48.30;16.52;;;;;;;5.02;99.38;102447.78;5064255;28;20123;-74
2021/11/18 00:27:45;;;;;;;52.33;16.40;;;;;;;4.96;98.97;102446.38;5059232;28;20603;-75
2021/11/18 00:30:12;;;;;;;45.53;15.65;;;;;;;4.98;99.60;102449.69;5043159;28;20045;-75
2021/11/18 00:32:38;;;;;;;39.92;15.50;;;;;;;5.01;99.12;102451.25;5030330;28;20109;-74
2021/11/18 00:35:06;;;;;;;43.58;16.52;;;;;;;4.99;99.39;102435.06;5034264;28;20483;-74
2021/11/18 00:37:32;;;;;;;48.35;15.88;;;;;;;4.97;99.49;102435.19;5049811;28;20024;-74
2021/11/18 00:39:58;;;;;;;52.88;17.08;;;;;;;5.01;99.10;102428.97;5061713;28;20117;-74
2021/11/18 00:42:24;;;;;;;43.65;16.73;;;;;;;4.90;99.38;102438.13;5061823;28;20028;-74
2021/11/18 00:44:52;;;;;;;54.22;17.45;;;;;;;4.90;99.50;102440.69;5050954;28;20395;-74
2021/11/18 00:47:18;;;;;;;49.88;16.80;;;;;;;4.96;99.38;102437.81;5050403;28;20025;-74
2021/11/18 00:49:43;;;;;;;54.60;17.38;;;;;;;5.01;99.28;102435.81;5024569;28;20033;-74
2021/11/18 00:52:09;;;;;;;46.03;15.90;;;;;;;4.90;99.01;102448.41;5038555;28;20047;-76
2021/11/18 00:54:34;;;;;;;56.42;15.90;;;;;;;4.88;99.55;102456.22;5041787;28;20024;-75
2021/11/18 00:57:00;;;;;;;48.72;16.55;;;;;;;4.81;100.00;102455.69;5065091;28;20033;-75
2021/11/18 00:59:26;;;;;;;55.47;16.70;;;;;;;4.99;99.74;102453.06;5034048;28;20474;-75
2021/11/18 01:01:54;;;;;;;51.22;15.45;;;;;;;4.95;99.60;102449.00;5031869;28;20029;-75
2021/11/18 01:04:20;;;;;;;44.47;17.05;;;;;;;4.93;99.56;102461.94;5055557;28;20503;-75
2021/11/18 01:06:46;;;;;;;54.38;17.60;;;;;;;4.84;99.36;102465.81;5057734;28;20031;-74
2021/11/18 01:09:12;;;;;;;51.42;17.45;;;;;;;4.87;99.94;102463.06;5048893;28;20028;-74
2021/11/18 01:11:39;;;;;;;46.67;17.27;;;;;;;4.83;99.62;102455.63;5046775;28;20070;-75
2021/11/18 01:14:10;;;;;;;43.05;16.52;;;;;;;4.85;99.98;102462.31;5044105;28;20028;-73
2021/11/18 01:16:38;;;;;;;50.53;18.02;;;;;;;4.83;99.88;102463.31;5043716;28;20032;-75
2021/11/18 01:19:05;;;;;;;47.45;16.77;;;;;;;4.78;99.84;102476.41;5049765;28;20051;-74
2021/11/18 01:21:32;;;;;;;50.00;16.73;;;;;;;4.77;99.44;102472.19;5042450;28;20036;-75
2021/11/18 01:23:58;;;;;;;52.22;17.05;;;;;;;4.75;100.00;102481.72;5043704;28;20040;-74
2021/11/18 01:26:35;;;;;;;45.40;16.17;;;;;;;4.72;99.70;102478.47;5046931;28;20127;-74
2021/11/18 01:29:01;;;;;;;44.70;17.27;;;;;;;4.73;99.89;102474.97;5077434;28;20147;-75
2021/11/18 01:31:28;;;;;;;57.80;16.85;;;;;;;4.86;99.94;102479.44;5047238;28;20081;-74
2021/11/18 01:33:57;;;;;;;47.90;16.00;;;;;;;4.78;99.62;102478.13;5046040;28;20032;-75
2021/11/18 01:36:23;;;;;;;51.10;16.17;;;;;;;4.79;99.26;102480.63;5042324;28;20036;-75
2021/11/18 01:38:59;;;;;;;51.20;16.25;;;;;;;4.77;99.64;102482.47;5044570;28;20598;-75
2021/11/18 01:41:29;;;;;;;44.80;16.23;;;;;;;4.82;99.46;102482.22;5035425;28;20491;-75
2021/11/18 01:44:00;;;;;;;52.03;16.67;;;;;;;4.72;99.12;102484.41;5044005;28;20029;-75
2021/11/18 01:46:33;;;;;;;52.30;16.65;;;;;;;4.68;99.47;102480.34;5049665;28;20020;-74
2021/11/18 01:49:01;;;;;;;47.55;15.98;;;;;;;4.71;99.27;102481.91;5048346;28;20032;-75
2021/11/18 01:51:33;;;;;;;51.20;16.10;;;;;;;4.64;100.00;102471.94;5047867;28;20407;-74
2021/11/18 01:54:01;;;;;;;47.95;15.27;;;;;;;4.61;100.00;102481.56;5045382;28;20082;-75
2021/11/18 01:56:33;;;;;;;52.75;16.25;;;;;;;4.57;100.00;102483.44;5048115;28;20120;-74
2021/11/18 01:59:07;;;;;;;47.70;15.30;;;;;;;4.58;100.00;102461.16;5043523;28;20044;-74
2021/11/18 02:01:46;;;;;;;56.95;16.08;;;;;;;4.59;100.00;102471.34;5054628;28;20070;-74
2021/11/18 02:04:26;;;;;;;58.78;16.52;;;;;;;4.68;100.00;102475.22;5042476;28;20037;-75
2021/11/18 02:07:03;;;;;;;52.58;16.48;;;;;;;4.71;99.85;102476.78;5024582;28;20040;-75
2021/11/18 02:09:37;;;;;;;55.35;15.20;;;;;;;4.67;99.52;102471.81;5050316;28;20041;-75
2021/11/18 02:12:09;;;;;;;52.92;16.35;;;;;;;4.75;99.31;102486.03;5050984;28;20395;-75
2021/11/18 02:14:36;;;;;;;56.80;18.42;;;;;;;4.80;99.22;102490.03;5047205;28;20039;-75
2021/11/18 02:17:03;;;;;;;54.20;16.33;;;;;;;4.81;99.09;102489.09;5048104;28;20402;-75
2021/11/18 02:19:38;;;;;;;58.95;17.55;;;;;;;4.77;98.91;102491.91;5031440;28;20033;-75
2021/11/18 02:22:04;;;;;;;52.20;16.95;;;;;;;4.79;99.11;102497.81;5035835;28;20120;-75
2021/11/18 02:24:36;;;;;;;65.70;17.63;;;;;;;4.77;99.45;102500.44;5046671;28;20112;-74
2021/11/18 02:27:03;;;;;;;57.07;17.10;;;;;;;4.79;99.26;102495.25;5050057;28;20078;-75
2021/11/18 02:29:28;;;;;;;58.05;16.85;;;;;;;4.77;98.97;102510.72;5041856;28;20093;-75
2021/11/18 02:32:03;;;;;;;65.10;16.30;;;;;;;4.79;99.09;102524.34;5043604;28;20024;-75
2021/11/18 02:34:58;;;;;;;58.45;16.25;;;;;;;4.72;99.28;102517.81;5054838;28;20698;-74
2021/11/18 02:37:25;;;;;;;57.25;16.50;;;;;;;4.72;99.14;102517.81;5047874;28;20052;-74
2021/11/18 02:39:51;;;;;;;67.78;16.15;;;;;;;4.73;99.02;102519.50;5051519;28;20116;-75
2021/11/18 02:42:19;;;;;;;58.42;15.80;;;;;;;4.69;98.91;102512.88;5035839;28;20037;-74
2021/11/18 02:44:45;;;;;;;50.22;16.73;;;;;;;4.58;99.26;102515.94;5051937;28;20040;-76
2021/11/18 02:47:12;;;;;;;62.42;17.13;;;;;;;4.67;99.01;102523.22;5046650;28;20032;-75
2021/11/18 02:49:53;;;;;;;52.75;16.63;;;;;;;4.59;99.52;102521.91;5060846;28;20035;-75
2021/11/18 02:52:27;;;;;;;57.50;16.17;;;;;;;4.73;99.61;102527.22;5040028;28;20036;-75
2021/11/18 02:54:53;;;;;;;65.43;18.58;;;;;;;4.64;98.79;102515.63;5045277;28;20120;-75
2021/11/18 02:57:18;;;;;;;66.35;17.55;;;;;;;4.61;99.52;102520.09;5060794;28;20112;-74
2021/11/18 02:59:44;;;;;;;50.47;16.50;;;;;;;4.60;99.81;102505.59;5036560;28;20044;-74
2021/11/18 03:02:11;;;;;;;54.88;15.88;;;;;;;4.65;99.42;102513.91;5050524;28;20175;-74
2021/11/18 03:04:36;;;;;;;53.10;17.85;;;;;;;4.73;99.50;102500.66;5072847;28;20466;-75
2021/11/18 03:07:05;;;;;;;57.38;16.05;;;;;;;4.70;98.97;102514.50;5050728;28;20056;-74
2021/11/18 03:09:32;;;;;;;59.85;18.42;;;;;;;4.68;98.92;102513.75;5081840;28;20024;-74
2021/11/18 03:11:59;;;;;;;55.60;16.52;;;;;;;4.60;99.17;102519.28;5035172;28;20479;-74
2021/11/18 03:14:30;;;;;;;53.35;16.85;;;;;;;4.55;99.55;102520.41;5049444;28;20032;-74
2021/11/18 03:16:57;;;;;;;56.50;17.37;;;;;;;4.63;99.50;102528.56;5050635;28;20039;-75
2021/11/18 03:19:29;;;;;;;55.72;17.92;;;;;;;4.59;99.77;102522.72;5040744;28;20941;-74
2021/11/18 03:21:55;;;;;;;49.13;16.15;;;;;;;4.62;99.22;102535.44;5070037;28;20068;-74
2021/11/18 03:24:23;;;;;;;57.55;17.77;;;;;;;4.49;99.70;102532.63;5079847;28;20036;-76
2021/11/18 03:26:49;;;;;;;57.38;16.92;;;;;;;4.55;99.51;102538.38;5073055;28;20036;-74
2021/11/18 03:29:22;;;;;;;46.38;14.57;;;;;;;4.54;99.95;102523.88;5042595;28;20471;-74
2021/11/18 03:31:48;;;;;;;63.15;17.17;;;;;;;4.49;100.00;102513.81;5046672;28;20025;-75
2021/11/18 03:34:16;;;;;;;61.83;16.73;;;;;;;4.45;100.00;102525.16;5048613;28;20066;-74
2021/11/18 03:36:43;;;;;;;55.05;15.68;;;;;;;4.53;100.00;102517.91;5048064;28;20399;-75
2021/11/18 03:39:11;;;;;;;62.78;16.83;;;;;;;4.57;99.92;102524.56;5036586;28;20036;-75
2021/11/18 03:41:43;;;;;;;66.60;17.17;;;;;;;4.55;99.73;102522.97;5029359;28;20471;-74
2021/11/18 03:44:11;;;;;;;58.55;15.88;;;;;;;4.46;100.00;102516.53;5043317;28;20040;-74
2021/11/18 03:46:44;;;;;;;58.97;18.48;;;;;;;4.64;99.95;102525.91;5051791;28;20159;-74
2021/11/18 03:49:11;;;;;;;49.80;16.60;;;;;;;4.52;99.63;102526.53;5038179;28;20040;-74
2021/11/18 03:51:42;;;;;;;58.08;19.58;;;;;;;4.48;99.97;102525.84;5043742;28;20139;-75
2021/11/18 03:54:11;;;;;;;56.40;17.95;;;;;;;4.42;100.00;102525.28;5039574;28;20568;-74
2021/11/18 03:56:39;;;;;;;59.75;19.77;;;;;;;4.40;100.00;102517.66;5037928;28;20136;-74
2021/11/18 03:59:34;;;;;;;73.57;23.27;;;;;;;4.41;100.00;102527.03;5080964;28;20456;-74
2021/11/18 04:02:04;;;;;;;58.72;21.20;;;;;;;4.38;100.00;102518.66;5042558;28;20595;-74
2021/11/18 04:04:52;;;;;;;70.40;26.95;;;;;;;4.38;100.00;102516.91;5041784;28;20180;-74
2021/11/18 04:07:18;;;;;;;85.70;25.25;;;;;;;4.45;100.00;102514.88;5049385;28;20471;-74
2021/11/18 04:09:48;;;;;;;66.18;23.95;;;;;;;4.46;100.00;102522.53;5048835;28;20029;-75
2021/11/18 04:12:15;;;;;;;73.40;25.48;;;;;;;4.39;100.00;102520.28;5061876;28;20040;-74
2021/11/18 04:14:42;;;;;;;91.28;33.75;;;;;;;4.38;100.00;102541.75;5044010;28;20086;-74
2021/11/18 04:17:12;;;;;;;108.28;34.95;;;;;;;4.41;100.00;102532.19;5042386;28;20052;-75
2021/11/18 04:19:38;;;;;;;91.97;32.00;;;;;;;4.51;100.00;102532.56;5038663;28;20024;-74
2021/11/18 04:22:04;;;;;;;72.80;26.27;;;;;;;4.51;100.00;102542.00;5050334;28;20128;-74
2021/11/18 04:24:35;;;;;;;72.38;26.95;;;;;;;4.46;100.00;102540.50;5074450;28;20035;-74
2021/11/18 04:27:01;;;;;;;76.20;25.67;;;;;;;4.42;100.00;102533.81;5036669;28;20036;-74
2021/11/18 04:29:28;;;;;;;77.93;28.67;;;;;;;4.49;100.00;102540.34;5030798;28;20310;-75
2021/11/18 04:32:02;;;;;;;66.32;26.13;;;;;;;4.39;100.00;102539.13;5048923;28;20032;-75
2021/11/18 04:34:29;;;;;;;74.65;24.92;;;;;;;4.38;100.00;102537.44;5041741;28;20025;-75
2021/11/18 04:36:55;;;;;;;69.60;24.00;;;;;;;4.38;100.00;102547.72;5055628;28;20036;-76
2021/11/18 04:39:21;;;;;;;60.05;23.27;;;;;;;4.37;100.00;102550.38;5034254;28;20032;-75
2021/11/18 04:41:47;;;;;;;74.85;26.10;;;;;;;4.35;100.00;102550.47;5060397;28;20048;-74
2021/11/18 04:44:14;;;;;;;68.93;23.27;;;;;;;4.36;100.00;102549.53;5025475;28;20029;-74
2021/11/18 04:46:40;;;;;;;60.25;22.60;;;;;;;4.41;100.00;102552.72;5040775;28;20040;-74
2021/11/18 04:49:06;;;;;;;64.45;26.30;;;;;;;4.40;100.00;102553.63;5045995;28;20459;-75
2021/11/18 04:51:33;;;;;;;61.25;24.25;;;;;;;4.43;100.00;102556.06;5048203;28;20024;-75
2021/11/18 04:53:59;;;;;;;66.20;24.17;;;;;;;4.47;100.00;102557.56;5037174;28;20067;-74
2021/11/18 04:56:28;;;;;;;62.10;22.45;;;;;;;4.55;100.00;102552.06;5030232;28;20029;-74
2021/11/18 04:58:56;;;;;;;65.40;20.90;;;;;;;4.55;100.00;102556.38;5043468;28;20025;-75
2021/11/18 05:01:23;;;;;;;61.70;23.08;;;;;;;4.45;100.00;102550.84;5044669;28;20390;-74
2021/11/18 05:03:51;;;;;;;67.45;23.25;;;;;;;4.48;100.00;102559.25;5047700;28;20375;-74
2021/11/18 05:06:18;;;;;;;57.13;22.33;;;;;;;4.51;100.00;102555.69;5027862;28;20387;-74
2021/11/18 05:08:45;;;;;;;66.65;23.70;;;;;;;4.49;100.00;102554.94;5041523;28;20182;-74
2021/11/18 05:11:11;;;;;;;59.40;22.17;;;;;;;4.50;100.00;102559.16;5048375;28;20129;-74
2021/11/18 05:13:39;;;;;;;55.05;19.30;;;;;;;4.56;100.00;102555.44;5047344;28;20028;-74
2021/11/18 05:16:10;;;;;;;54.75;19.08;;;;;;;4.56;100.00;102547.75;5048161;28;20032;-74
2021/11/18 05:18:35;;;;;;;58.55;20.20;;;;;;;4.56;100.00;102540.88;5049647;28;20731;-74
2021/11/18 05:21:02;;;;;;;54.90;19.52;;;;;;;4.54;100.00;102549.56;5028903;28;20509;-74
2021/11/18 05:23:29;;;;;;;56.72;19.90;;;;;;;4.57;100.00;102550.25;5045332;28;20073;-74
2021/11/18 05:25:58;;;;;;;68.82;19.83;;;;;;;4.61;100.00;102551.75;5049202;28;20025;-76
2021/11/18 05:28:25;;;;;;;62.10;20.67;;;;;;;4.62;100.00;102550.88;5048370;28;20024;-76
2021/11/18 05:30:52;;;;;;;67.25;21.75;;;;;;;4.66;100.00;102551.53;5045926;28;20059;-75
2021/11/18 05:33:20;;;;;;;57.08;20.13;;;;;;;4.61;100.00;102550.94;5016865;28;20035;-75
2021/11/18 05:35:47;;;;;;;61.33;21.10;;;;;;;4.73;100.00;102544.34;5027671;28;20025;-74
2021/11/18 05:38:13;;;;;;;69.78;22.23;;;;;;;4.68;100.00;102544.59;5061750;28;20139;-74
2021/11/18 05:40:44;;;;;;;68.10;18.67;;;;;;;4.62;100.00;102543.16;5066926;28;20028;-74
2021/11/18 05:43:14;;;;;;;57.85;19.50;;;;;;;4.63;100.00;102542.25;5048810;28;20106;-75
2021/11/18 05:45:40;;;;;;;59.38;21.23;;;;;;;4.72;100.00;102548.66;5041665;28;20057;-75
2021/11/18 05:48:15;;;;;;;68.97;21.77;;;;;;;4.70;100.00;102547.09;5043981;28;20491;-75
2021/11/18 05:50:46;;;;;;;57.28;21.20;;;;;;;4.68;100.00;102550.56;5045959;28;20498;-75
2021/11/18 05:53:15;;;;;;;62.35;21.50;;;;;;;4.79;100.00;102549.22;5042308;28;20521;-74
2021/11/18 05:55:40;;;;;;;64.97;21.10;;;;;;;4.85;99.80;102543.75;5049456;28;20028;-75
2021/11/18 05:58:06;;;;;;;59.75;23.00;;;;;;;4.84;99.75;102545.50;5048202;28;20055;-75
2021/11/18 06:00:35;;;;;;;62.13;21.92;;;;;;;4.77;99.67;102541.56;5046689;28;20036;-74
2021/11/18 06:03:02;;;;;;;63.65;19.58;;;;;;;4.80;99.82;102538.88;5047414;28;20060;-74
2021/11/18 06:05:29;;;;;;;61.45;22.13;;;;;;;4.88;99.38;102548.75;5040188;28;20024;-75
2021/11/18 06:07:55;;;;;;;71.47;20.75;;;;;;;4.79;99.63;102539.75;5040308;28;20036;-75
2021/11/18 06:10:25;;;;;;;71.05;24.08;;;;;;;4.77;100.00;102546.72;5043831;28;20310;-74
2021/11/18 06:12:53;;;;;;;66.47;21.23;;;;;;;4.95;99.90;102544.13;5036124;28;20029;-74
2021/11/18 06:15:29;;;;;;;59.80;20.33;;;;;;;4.82;99.54;102544.75;5044569;28;20016;-75
2021/11/18 06:17:56;;;;;;;52.08;17.70;;;;;;;4.80;100.00;102543.16;5058868;28;20029;-75
2021/11/18 06:20:22;;;;;;;65.68;21.75;;;;;;;4.90;100.00;102546.09;5044747;28;20502;-74
2021/11/18 06:22:48;;;;;;;58.75;20.08;;;;;;;5.00;99.46;102545.56;5044201;28;20067;-74
2021/11/18 06:25:17;;;;;;;50.88;18.85;;;;;;;4.96;99.01;102549.19;5023175;28;20028;-74
2021/11/18 06:27:45;;;;;;;63.60;18.63;;;;;;;4.97;99.39;102550.88;5033964;28;20034;-75
2021/11/18 06:30:16;;;;;;;55.67;19.20;;;;;;;5.10;99.58;102553.63;5047752;28;20024;-75
2021/11/18 06:32:43;;;;;;;60.92;20.58;;;;;;;4.99;98.86;102556.78;5040500;28;20112;-74
2021/11/18 06:35:10;;;;;;;59.38;20.02;;;;;;;4.97;99.18;102552.59;5025898;28;20449;-75
2021/11/18 06:37:35;;;;;;;54.58;17.58;;;;;;;4.98;99.26;102554.28;5037993;28;20344;-74
2021/11/18 06:40:04;;;;;;;74.63;22.58;;;;;;;4.94;99.40;102565.63;5046748;28;20036;-74
2021/11/18 06:42:35;;;;;;;60.35;20.50;;;;;;;5.03;99.63;102563.41;5043470;28;20448;-75
2021/11/18 06:45:36;;;;;;;59.80;20.20;;;;;;;5.01;99.14;102566.97;5033375;28;20032;-74
2021/11/18 06:48:08;;;;;;;62.28;18.65;;;;;;;5.01;99.01;102561.81;5042659;28;20029;-74
2021/11/18 06:50:35;;;;;;;60.83;18.25;;;;;;;4.93;99.55;102562.19;5046864;28;20092;-74
2021/11/18 06:53:06;;;;;;;66.35;21.77;;;;;;;4.97;99.62;102568.03;5044084;28;20465;-74
2021/11/18 06:55:32;;;;;;;59.40;20.02;;;;;;;4.92;100.00;102577.72;5041920;28;20028;-75
2021/11/18 06:57:58;;;;;;;58.92;19.80;;;;;;;4.92;99.81;102591.41;5037700;28;20037;-74
2021/11/18 07:00:24;;;;;;;60.92;19.60;;;;;;;4.96;99.92;102600.63;5044359;28;20079;-75
2021/11/18 07:02:50;;;;;;;61.05;19.13;;;;;;;4.94;100.00;102602.44;5047329;28;20097;-74
2021/11/18 07:05:16;;;;;;;60.83;19.75;;;;;;;4.93;99.94;102605.09;5040950;28;20028;-75
2021/11/18 07:07:42;;;;;;;64.40;21.17;;;;;;;4.93;99.91;102595.63;5063225;28;20024;-74
2021/11/18 07:10:26;;;;;;;69.63;22.33;;;;;;;5.05;100.00;102578.78;5052067;28;20044;-74
2021/11/18 07:13:16;;;;;;;61.25;18.05;;;;;;;5.02;99.86;102579.75;5061168;28;20087;-75
2021/11/18 07:15:42;;;;;;;55.33;18.75;;;;;;;5.03;99.49;102584.00;5068842;28;20028;-74
2021/11/18 07:18:13;;;;;;;61.35;17.10;;;;;;;5.17;99.30;102585.88;5049573;28;20062;-74
2021/11/18 07:20:41;;;;;;;60.78;18.33;;;;;;;5.12;98.95;102592.97;5043361;28;20047;-74
2021/11/18 07:23:10;;;;;;;55.03;17.17;;;;;;;5.10;99.73;102610.22;5049786;28;20036;-75
2021/11/18 07:25:44;;;;;;;55.10;15.85;;;;;;;5.09;99.66;102608.56;5041415;28;20033;-75
2021/11/18 07:28:11;;;;;;;50.83;16.30;;;;;;;5.16;99.66;102620.22;5051329;28;20044;-74
2021/11/18 07:30:36;;;;;;;53.25;16.58;;;;;;;5.20;99.44;102611.44;5043609;28;20035;-74
2021/11/18 07:33:04;;;;;;;60.88;17.67;;;;;;;5.29;99.36;102609.31;5033600;28;20487;-74
2021/11/18 07:35:31;;;;;;;54.97;16.77;;;;;;;5.22;99.33;102614.75;5044664;28;20404;-74
2021/11/18 07:37:58;;;;;;;51.97;15.80;;;;;;;5.42;98.50;102613.75;5043239;28;20032;-75
2021/11/18 07:40:30;;;;;;;60.90;16.08;;;;;;;5.37;98.54;102617.44;5077146;28;20529;-74
2021/11/18 07:43:08;;;;;;;55.17;16.33;;;;;;;5.34;97.96;102618.44;5065037;28;20447;-75
2021/11/18 07:45:40;;;;;;;60.22;17.23;;;;;;;5.36;98.51;102616.63;5065944;28;20597;-75
2021/11/18 07:48:22;;;;;;;53.47;17.17;;;;;;;5.33;98.92;102624.53;5044619;28;20044;-76
2021/11/18 07:50:48;;;;;;;58.42;17.25;;;;;;;5.35;98.82;102622.69;5046692;28;20017;-74
2021/11/18 07:53:14;;;;;;;59.90;17.70;;;;;;;5.33;98.64;102613.38;5050552;28;20036;-74
2021/11/18 07:55:42;;;;;;;56.78;17.52;;;;;;;5.46;98.38;102614.41;5034032;28;20078;-74
2021/11/18 07:58:08;;;;;;;61.67;15.88;;;;;;;5.52;98.08;102611.56;5045247;28;20801;-74
2021/11/18 08:00:34;;;;;;;48.65;15.55;;;;;;;5.57;97.77;102619.03;5077335;28;20029;-75
2021/11/18 08:03:14;;;;;;;52.42;15.20;;;;;;;5.64;97.70;102620.38;5050979;28;20032;-74
2021/11/18 08:06:00;;;;;;;53.65;16.00;;;;;;;5.62;97.79;102623.03;5055078;28;20132;-75
2021/11/18 08:08:26;;;;;;;43.72;14.85;;;;;;;5.66;97.23;102616.81;5042299;28;20024;-74
2021/11/18 08:10:53;;;;;;;52.10;14.77;;;;;;;5.75;97.07;102618.06;5046589;28;20465;-74
2021/11/18 08:13:19;;;;;;;56.35;14.52;;;;;;;5.83;96.84;102615.91;5037273;28;20037;-74
2021/11/18 08:15:46;;;;;;;48.13;14.57;;;;;;;5.86;96.32;102612.38;5047800;28;20036;-74
2021/11/18 08:18:12;;;;;;;47.05;15.20;;;;;;;5.82;96.49;102619.44;5047119;28;20029;-74
2021/11/18 08:20:37;;;;;;;54.08;14.77;;;;;;;5.88;96.73;102620.84;5048719;28;20032;-75
2021/11/18 08:23:05;;;;;;;51.97;15.02;;;;;;;5.77;96.93;102620.56;5037187;28;20036;-74
2021/11/18 08:25:34;;;;;;;44.28;14.20;;;;;;;5.79;96.82;102623.91;5053751;28;20039;-75
2021/11/18 08:28:00;;;;;;;45.10;13.57;;;;;;;5.81;97.15;102616.94;5051118;28;20056;-74
2021/11/18 08:30:29;;;;;;;44.05;13.90;;;;;;;5.96;96.55;102615.31;5045959;28;20049;-74
2021/11/18 08:32:58;;;;;;;49.63;14.73;;;;;;;5.91;96.25;102627.56;5039236;28;20398;-74
2021/11/18 08:35:31;;;;;;;59.00;15.10;;;;;;;6.12;96.31;102629.06;5046248;28;20034;-74
2021/11/18 08:37:59;;;;;;;47.33;14.57;;;;;;;6.08;95.38;102639.59;5051752;28;20028;-74
2021/11/18 08:40:26;;;;;;;48.45;14.20;;;;;;;6.11;95.42;102639.44;5044971;28;20029;-73
2021/11/18 08:42:53;;;;;;;50.45;15.25;;;;;;;6.16;95.88;102658.03;5066732;28;20436;-75
2021/11/18 08:45:18;;;;;;;62.00;18.02;;;;;;;6.26;95.21;102668.69;5052934;28;20028;-74
2021/11/18 08:47:44;;;;;;;65.80;18.80;;;;;;;6.33;94.41;102670.00;5041482;28;20051;-74
2021/11/18 08:50:14;;;;;;;45.90;14.35;;;;;;;6.29;94.69;102660.78;5035104;28;20040;-73
2021/11/18 08:52:40;;;;;;;52.13;15.75;;;;;;;6.23;95.56;102664.50;5047473;28;20032;-74
2021/11/18 08:55:11;;;;;;;47.65;13.07;;;;;;;6.30;95.24;102659.88;5025658;28;20035;-74
2021/11/18 08:57:40;;;;;;;39.70;13.10;;;;;;;6.29;95.40;102669.38;5052345;28;20036;-73
2021/11/18 09:00:24;;;;;;;49.60;13.07;;;;;;;6.29;95.37;102671.94;5043862;28;20032;-74
2021/11/18 09:03:10;;;;;;;47.45;12.82;;;;;;;6.41;95.05;102663.53;5054118;28;20391;-74
2021/11/18 09:05:39;;;;;;;49.15;12.18;;;;;;;6.53;94.28;102664.59;5048365;28;20033;-74
2021/11/18 09:08:05;;;;;;;46.20;12.73;;;;;;;6.51;93.54;102653.53;5047565;28;20402;-73
2021/11/18 09:10:35;;;;;;;43.33;14.02;;;;;;;6.53;93.96;102651.72;5043519;28;20077;-74
2021/11/18 09:13:01;;;;;;;43.17;12.65;;;;;;;6.63;92.96;102655.47;5047540;28;20415;-73
2021/11/18 09:15:27;;;;;;;44.90;13.38;;;;;;;6.58;93.46;102659.22;5050297;28;20025;-74
2021/11/18 09:17:56;;;;;;;57.95;14.82;;;;;;;6.62;92.71;102666.69;5046379;28;20120;-73
2021/11/18 09:20:39;;;;;;;49.05;13.07;;;;;;;6.64;92.90;102671.75;5066576;28;20032;-74
2021/11/18 09:23:06;;;;;;;42.38;12.80;;;;;;;6.62;93.08;102663.28;5036072;28;20029;-73
2021/11/18 09:25:41;;;;;;;43.17;11.50;;;;;;;6.66;93.28;102663.94;5031146;28;20027;-75
2021/11/18 09:28:09;;;;;;;42.22;12.25;;;;;;;6.59;93.57;102664.28;5028866;28;20028;-74
2021/11/18 09:30:52;;;;;;;;;;;;;;;6.80;92.56;102669.19;5042793;28;20488;-73
2021/11/18 09:33:20;;;;;;;49.05;12.43;;;;;;;6.82;92.33;102657.84;5072613;28;19912;-73
2021/11/18 09:35:52;;;;;;;37.00;11.75;;;;;;;6.85;92.26;102668.91;5028129;28;20458;-74
2021/11/18 09:38:21;;;;;;;50.92;12.63;;;;;;;6.92;92.15;102665.88;5066821;28;20112;-74
2021/11/18 09:40:54;;;;;;;49.65;13.20;;;;;;;6.79;92.56;102662.34;5032822;28;20499;-73
2021/11/18 09:43:35;;;;;;;37.38;11.52;;;;;;;6.98;91.91;102656.97;5033601;28;20035;-74
2021/11/18 09:46:03;;;;;;;35.60;10.88;;;;;;;6.94;92.14;102658.91;5059401;28;20036;-73
2021/11/18 09:49:06;;;;;;;44.88;11.73;;;;;;;7.01;91.49;102662.78;5033639;28;20047;-76
2021/11/18 09:51:56;;;;;;;40.50;12.20;;;;;;;7.13;90.63;102670.75;5022462;28;20040;-74
2021/11/18 09:54:49;;;;;;;48.08;14.45;;;;;;;7.25;90.86;102670.03;5030702;28;20454;-73
2021/11/18 09:57:49;;;;;;;43.63;11.27;;;;;;;7.27;90.28;102680.28;5033521;28;20051;-73
2021/11/18 10:00:51;;;;;;;37.33;10.75;;;;;;;7.26;90.50;102692.34;5049117;28;20032;-73
2021/11/18 10:03:36;;;;;;;35.53;11.38;;;;;;;7.36;89.85;102690.88;5044956;28;20029;-73
2021/11/18 10:06:34;;;;;;;30.10;10.27;;;;;;;7.39;89.50;102688.13;5043956;28;20033;-73
2021/11/18 10:09:27;;;;;;;43.03;10.77;;;;;;;7.38;90.00;102694.25;5024113;28;20052;-73
2021/11/18 10:11:52;;;;;;;43.78;11.70;;;;;;;7.47;90.09;102695.44;5044882;28;20428;-74
2021/11/18 10:14:34;;;;;;;45.33;12.02;;;;;;;7.42;90.14;102687.13;5039100;28;20028;-74
2021/11/18 10:17:02;;;;;;;36.88;10.82;;;;;;;7.53;89.89;102691.66;5068129;28;20043;-73
2021/11/18 10:19:36;;;;;;;38.67;11.88;;;;;;;7.61;89.45;102689.47;5046385;28;20487;-73
2021/11/18 10:22:03;;;;;;;39.97;10.90;;;;;;;7.65;89.32;102687.53;5066505;28;20127;-73
2021/11/18 10:24:34;;;;;;;35.28;9.93;;;;;;;7.61;89.16;102694.66;5064818;28;20028;-75
2021/11/18 10:27:10;;;;;;;34.47;10.52;;;;;;;7.63;89.80;102694.53;5063108;28;20402;-73
2021/11/18 10:29:57;;;;;;;40.65;10.65;;;;;;;7.85;88.60;102689.75;5065051;28;20115;-73
2021/11/18 10:32:29;;;;;;;32.30;10.73;;;;;;;7.90;88.79;102676.56;5037188;28;20071;-74
2021/11/18 10:35:09;;;;;;;36.90;9.98;;;;;;;7.82;89.40;102684.78;5065750;28;20129;-74
2021/11/18 10:37:38;;;;;;;38.60;10.75;;;;;;;7.95;87.49;102688.28;5065730;28;20620;-73
2021/11/18 10:40:28;;;;;;;40.58;10.15;;;;;;;7.97;87.42;102683.84;5051693;28;20040;-75
2021/11/18 10:43:02;;;;;;;35.30;10.25;;;;;;;7.93;87.88;102684.13;5057639;28;20040;-73
2021/11/18 10:45:27;;;;;;;29.98;9.27;;;;;;;8.02;86.60;102678.41;5070141;28;20028;-73
2021/11/18 10:48:18;;;;;;;34.75;8.85;;;;;;;8.04;86.93;102679.13;5058075;28;20131;-75
2021/11/18 10:50:53;;;;;;;39.13;9.60;;;;;;;7.99;87.55;102676.84;5054212;28;20035;-74
2021/11/18 10:53:26;;;;;;;39.88;10.50;;;;;;;8.06;87.00;102672.16;5052685;28;20518;-73
2021/11/18 10:56:17;;;;;;;28.33;8.15;;;;;;;7.96;87.38;102677.03;5067294;28;20098;-74
2021/11/18 10:59:07;;;;;;;36.78;10.48;;;;;;;7.95;86.54;102674.56;5064279;28;20029;-73
2021/11/18 11:01:39;;;;;;;39.95;8.43;;;;;;;7.96;87.01;102668.44;5043119;28;20096;-73
2021/11/18 11:04:08;;;;;;;29.27;9.13;;;;;;;8.03;86.32;102661.16;5059818;28;20115;-75
2021/11/18 11:06:34;;;;;;;35.15;8.30;;;;;;;7.99;86.95;102655.34;5044876;28;20095;-73
2021/11/18 11:09:08;;;;;;;45.25;8.60;;;;;;;8.14;86.61;102658.75;5064039;28;20063;-75
2021/11/18 11:11:48;;;;;;;26.88;7.82;;;;;;;8.25;86.64;102646.00;5062750;28;20499;-74
2021/11/18 11:14:29;;;;;;;38.78;7.22;;;;;;;8.40;85.48;102639.03;5031291;28;20120;-73
2021/11/18 11:17:20;;;;;;;31.88;7.45;;;;;;;8.53;84.66;102639.09;5066944;28;20196;-73
2021/11/18 11:20:20;;;;;;;33.35;7.88;;;;;;;8.53;84.75;102637.38;5069239;28;20060;-74
2021/11/18 11:23:03;;;;;;;20.90;7.28;;;;;;;8.39;85.79;102640.78;5056863;28;20047;-73
2021/11/18 11:25:48;;;;;;;28.30;8.20;;;;;;;8.41;85.94;102639.84;5064325;28;20064;-72
2021/11/18 11:28:32;;;;;;;28.73;7.07;;;;;;;8.60;85.38;102640.38;5082830;28;20128;-74
2021/11/18 11:31:22;;;;;;;27.60;7.68;;;;;;;8.51;84.23;102648.72;5066024;28;20029;-73
2021/11/18 11:34:18;;;;;;;30.30;7.85;;;;;;;8.60;84.06;102650.72;5066044;28;20047;-73